createdAt,value
2023-10-26T00:00:43.575Z,3.60
2023-10-26T00:03:10.387Z,4.35
2023-10-26T00:05:37.197Z,2.20
2023-10-26T00:08:03.960Z,2.47
2023-10-26T00:10:32.913Z,4.10
2023-10-26T00:13:01.769Z,3.20
2023-10-26T00:15:33.224Z,3.85
2023-10-26T00:17:59.778Z,4.18
2023-10-26T00:20:26.328Z,5.20
2023-10-26T00:22:52.819Z,6.03
2023-10-26T00:25:19.411Z,4.68
2023-10-26T00:27:45.920Z,4.88
2023-10-26T00:30:12.975Z,2.97
2023-10-26T00:32:40.703Z,4.38
2023-10-26T00:35:07.918Z,5.70
2023-10-26T00:37:34.438Z,5.50
2023-10-26T00:40:01.079Z,4.10
2023-10-26T00:42:29.957Z,5.20
2023-10-26T00:44:58.794Z,6.00
2023-10-26T00:47:27.097Z,2.65
2023-10-26T00:49:54.603Z,4.65
2023-10-26T00:52:21.964Z,3.17
2023-10-26T00:54:48.584Z,5.63
2023-10-26T00:57:17.670Z,5.38
2023-10-26T00:59:45.339Z,4.88
2023-10-26T01:02:14.708Z,3.30
2023-10-26T01:04:41.837Z,5.75
2023-10-26T01:07:10.639Z,5.43
2023-10-26T01:09:39.415Z,6.60
2023-10-26T01:12:06.347Z,5.68
2023-10-26T01:14:33.019Z,5.95
2023-10-26T01:16:59.571Z,7.25
2023-10-26T01:19:43.173Z,7.05
2023-10-26T01:22:10.514Z,6.32
2023-10-26T01:24:37.761Z,6.45
2023-10-26T01:27:05.601Z,5.70
2023-10-26T01:29:32.716Z,3.03
2023-10-26T01:31:59.427Z,4.68
2023-10-26T01:34:28.781Z,5.97
2023-10-26T01:36:55.385Z,6.13
2023-10-26T01:39:22.010Z,5.65
2023-10-26T01:41:50.860Z,4.20
2023-10-26T01:44:17.378Z,3.53
2023-10-26T01:46:43.931Z,4.25
2023-10-26T01:49:11.614Z,2.60
2023-10-26T01:54:04.790Z,2.95
2023-10-26T01:56:32.167Z,3.95
2023-10-26T01:58:58.990Z,3.00
2023-10-26T02:01:25.666Z,3.33
2023-10-26T02:03:52.522Z,4.22
2023-10-26T02:06:19.376Z,4.05
2023-10-26T02:08:46.006Z,2.83
2023-10-26T02:11:12.589Z,3.88
2023-10-26T02:13:41.114Z,2.65
2023-10-26T02:16:07.965Z,4.72
2023-10-26T02:18:34.659Z,4.57
2023-10-26T02:21:01.848Z,3.78
2023-10-26T02:23:29.105Z,3.42
2023-10-26T02:25:55.649Z,3.47
2023-10-26T02:28:22.337Z,3.35
2023-10-26T02:30:48.978Z,4.57
2023-10-26T02:33:15.634Z,4.60
2023-10-26T02:35:42.314Z,2.60
2023-10-26T02:38:08.837Z,4.47
2023-10-26T02:40:38.772Z,3.50
2023-10-26T02:43:05.596Z,2.88
2023-10-26T02:45:34.344Z,5.55
2023-10-26T02:48:01.062Z,4.50
2023-10-26T02:50:29.946Z,5.05
2023-10-26T02:52:56.443Z,4.32
2023-10-26T02:55:24.805Z,3.65
2023-10-26T02:57:51.531Z,5.35
2023-10-26T03:00:18.765Z,5.20
2023-10-26T03:02:45.403Z,4.38
2023-10-26T03:05:11.948Z,4.03
2023-10-26T03:07:38.444Z,6.57
2023-10-26T03:10:07.901Z,5.40
2023-10-26T03:12:34.426Z,7.13
2023-10-26T03:15:01.422Z,6.82
2023-10-26T03:17:28.162Z,4.78
2023-10-26T03:19:57.061Z,6.00
2023-10-26T03:22:23.618Z,3.88
2023-10-26T03:24:51.441Z,6.72
2023-10-26T03:27:18.173Z,6.63
2023-10-26T03:29:44.733Z,6.05
2023-10-26T03:32:11.213Z,5.82
2023-10-26T03:34:37.698Z,6.18
2023-10-26T03:37:04.440Z,5.78
2023-10-26T03:39:31.251Z,5.55
2023-10-26T03:41:57.819Z,6.13
2023-10-26T03:44:24.451Z,5.72
2023-10-26T03:46:53.237Z,5.78
2023-10-26T03:49:20.539Z,4.93
2023-10-26T03:51:50.634Z,4.57
2023-10-26T03:54:19.503Z,4.25
2023-10-26T03:56:48.432Z,5.20
2023-10-26T03:59:14.943Z,3.92
2023-10-26T04:01:41.498Z,4.82
2023-10-26T04:04:08.594Z,3.33
2023-10-26T04:06:35.093Z,5.50
2023-10-26T04:09:01.616Z,3.85
2023-10-26T04:11:28.190Z,5.38
2023-10-26T04:14:00.454Z,4.68
2023-10-26T04:16:27.061Z,5.28
2023-10-26T04:18:54.325Z,4.40
2023-10-26T04:21:21.063Z,5.68
2023-10-26T04:23:47.603Z,4.03
2023-10-26T04:26:14.261Z,5.97
2023-10-26T04:28:51.533Z,5.88
2023-10-26T04:31:21.596Z,6.20
2023-10-26T04:33:49.536Z,7.07
2023-10-26T04:36:16.539Z,6.75
2023-10-26T04:38:43.039Z,7.05
2023-10-26T04:41:09.562Z,7.45
2023-10-26T04:43:36.172Z,7.50
2023-10-26T04:46:02.810Z,6.75
2023-10-26T04:48:31.677Z,6.30
2023-10-26T04:50:58.338Z,6.75
2023-10-26T04:53:24.928Z,6.40
2023-10-26T04:55:51.417Z,6.68
2023-10-26T04:58:17.966Z,6.28
2023-10-26T05:00:44.741Z,6.25
2023-10-26T05:03:11.486Z,5.63
2023-10-26T05:05:38.056Z,6.13
2023-10-26T05:08:05.104Z,6.22
2023-10-26T05:10:33.970Z,6.75
2023-10-26T05:13:00.458Z,7.03
2023-10-26T05:15:27.053Z,6.55
2023-10-26T05:17:53.676Z,4.97
2023-10-26T05:20:22.568Z,5.15
2023-10-26T05:22:56.519Z,6.45
2023-10-26T05:25:25.330Z,7.35
2023-10-26T05:27:51.910Z,4.13
2023-10-26T05:30:20.853Z,6.50
2023-10-26T05:32:49.769Z,6.30
2023-10-26T05:35:16.549Z,7.03
2023-10-26T05:38:11.780Z,7.35
2023-10-26T05:40:38.373Z,6.45
2023-10-26T05:43:05.020Z,6.28
2023-10-26T05:45:38.313Z,6.80
2023-10-26T05:48:06.761Z,5.82
2023-10-26T05:50:35.992Z,5.40
2023-10-26T05:53:04.408Z,4.35
2023-10-26T05:55:31.174Z,6.28
2023-10-26T05:57:57.842Z,6.03
2023-10-26T06:00:29.748Z,5.80
2023-10-26T06:02:56.279Z,6.22
2023-10-26T06:05:24.788Z,5.07
2023-10-26T06:08:30.992Z,5.40
2023-10-26T06:10:59.288Z,6.13
2023-10-26T06:13:26.038Z,6.50
2023-10-26T06:19:13.743Z,4.35
2023-10-26T06:30:43.904Z,6.53
2023-10-26T06:35:51.728Z,6.60
2023-10-26T06:38:18.329Z,6.30
2023-10-26T06:40:46.499Z,4.97
2023-10-26T06:43:13.042Z,6.65
2023-10-26T06:45:39.883Z,6.95
2023-10-26T06:48:07.070Z,6.85
2023-10-26T06:50:34.065Z,6.28
2023-10-26T06:53:00.566Z,6.20
2023-10-26T06:55:30.700Z,6.57
2023-10-26T06:58:00.270Z,6.68
2023-10-26T07:00:27.248Z,7.05
2023-10-26T07:02:56.081Z,6.32
2023-10-26T07:05:22.725Z,6.45
2023-10-26T07:07:49.388Z,7.18
2023-10-26T07:10:16.418Z,6.57
2023-10-26T07:12:44.018Z,6.70
2023-10-26T07:15:13.421Z,6.53
2023-10-26T07:17:40.140Z,6.57
2023-10-26T07:20:09.071Z,6.60
2023-10-26T07:22:36.535Z,5.90
2023-10-26T07:25:06.350Z,6.72
2023-10-26T07:27:33.177Z,6.53
2023-10-26T07:30:02.772Z,6.50
2023-10-26T07:32:29.398Z,6.90
2023-10-26T07:34:59.913Z,6.03
2023-10-26T07:37:26.496Z,4.85
2023-10-26T07:39:53.046Z,6.70
2023-10-26T07:42:39.584Z,6.78
2023-10-26T07:45:07.353Z,4.28
2023-10-26T07:50:03.737Z,6.15
2023-10-26T07:52:30.319Z,6.40
2023-10-26T07:54:56.891Z,5.90
2023-10-26T07:57:23.481Z,5.90
2023-10-26T07:59:49.970Z,6.13
2023-10-26T08:02:16.725Z,6.65
2023-10-26T08:04:45.888Z,7.00
2023-10-26T08:07:15.007Z,7.38
2023-10-26T08:09:43.817Z,6.93
2023-10-26T08:12:11.705Z,6.38
2023-10-26T08:16:05.928Z,8.40
2023-10-26T08:17:26.746Z,5.18
2023-10-26T08:19:54.165Z,6.80
2023-10-26T08:22:23.629Z,7.28
2023-10-26T08:24:55.024Z,7.32
2023-10-26T08:27:23.501Z,7.10
2023-10-26T08:29:51.362Z,7.38
2023-10-26T08:32:22.875Z,7.28
2023-10-26T08:34:52.716Z,6.82
2023-10-26T08:37:19.226Z,7.45
2023-10-26T08:39:45.778Z,7.45
2023-10-26T08:42:14.415Z,7.10
2023-10-26T08:44:44.783Z,7.43
2023-10-26T08:47:15.849Z,7.78
2023-10-26T08:49:46.148Z,7.72
2023-10-26T08:52:17.553Z,7.97
2023-10-26T08:54:44.262Z,7.35
2023-10-26T08:57:13.434Z,7.60
2023-10-26T08:59:40.152Z,7.35
2023-10-26T09:02:07.113Z,8.30
2023-10-26T09:04:34.025Z,7.85
2023-10-26T09:07:00.653Z,8.07
2023-10-26T09:09:29.556Z,8.07
2023-10-26T09:12:09.267Z,9.02
2023-10-26T09:14:35.789Z,6.15
2023-10-26T09:17:02.373Z,8.85
2023-10-26T09:19:38.621Z,5.57
2023-10-26T09:22:05.259Z,4.47
2023-10-26T09:24:31.773Z,7.43
2023-10-26T09:27:01.080Z,7.97
2023-10-26T09:29:42.951Z,6.65
2023-10-26T09:32:10.430Z,7.82
2023-10-26T09:34:47.144Z,7.53
2023-10-26T09:37:14.043Z,8.15
2023-10-26T09:42:12.561Z,9.23
2023-10-26T09:44:39.785Z,9.10
2023-10-26T09:47:07.741Z,8.82
2023-10-26T09:49:34.720Z,8.32
2023-10-26T09:52:01.509Z,6.63
2023-10-26T09:54:31.488Z,7.95
2023-10-26T09:57:17.716Z,8.77
2023-10-26T09:59:44.469Z,5.30
2023-10-26T10:02:16.069Z,4.32
2023-10-26T10:04:43.460Z,9.95
2023-10-26T10:07:10.425Z,6.88
2023-10-26T10:10:01.990Z,3.97
2023-10-26T10:12:30.839Z,5.18
2023-10-26T10:15:36.234Z,5.32
2023-10-26T10:18:03.067Z,6.47
2023-10-26T10:20:31.543Z,8.80
2023-10-26T10:23:01.564Z,4.65
2023-10-26T10:26:05.716Z,8.63
2023-10-26T10:28:42.166Z,6.18
2023-10-26T10:31:10.687Z,6.00
2023-10-26T10:33:40.336Z,8.57
2023-10-26T10:36:09.885Z,7.65
2023-10-26T10:38:39.632Z,6.80
2023-10-26T10:41:11.635Z,4.15
2023-10-26T10:43:46.288Z,4.97
2023-10-26T10:46:27.897Z,5.00
2023-10-26T10:49:02.375Z,6.57
2023-10-26T10:51:30.986Z,7.75
2023-10-26T10:54:06.076Z,5.03
2023-10-26T10:56:42.718Z,6.72
2023-10-26T10:59:23.264Z,6.53
2023-10-26T11:01:51.302Z,7.18
2023-10-26T11:04:18.591Z,4.75
2023-10-26T11:06:45.632Z,6.28
2023-10-26T11:09:30.706Z,5.63
2023-10-26T11:12:08.817Z,6.63
2023-10-26T11:14:37.595Z,4.85
2023-10-26T11:17:04.312Z,6.68
2023-10-26T11:19:36.580Z,5.95
2023-10-26T11:22:04.972Z,4.28
2023-10-26T11:24:32.453Z,3.60
2023-10-26T11:27:19.014Z,5.03
2023-10-26T11:29:46.733Z,3.60
2023-10-26T11:35:08.404Z,3.67
2023-10-26T11:37:40.300Z,3.97
2023-10-26T11:40:08.463Z,3.75
2023-10-26T11:42:50.445Z,5.57
2023-10-26T11:45:19.351Z,4.75
2023-10-26T11:47:49.573Z,5.85
2023-10-26T11:50:23.524Z,4.90
2023-10-26T11:52:51.047Z,3.92
2023-10-26T11:55:20.679Z,5.40
2023-10-26T11:57:47.402Z,6.10
2023-10-26T12:00:17.336Z,4.68
2023-10-26T12:02:44.028Z,5.07
2023-10-26T12:05:22.529Z,5.60
2023-10-26T12:07:49.374Z,5.90
2023-10-26T12:10:18.087Z,4.53
2023-10-26T12:12:49.779Z,5.80
2023-10-26T12:15:16.416Z,5.40
2023-10-26T12:17:43.015Z,5.72
2023-10-26T12:20:12.204Z,5.38
2023-10-26T12:22:40.033Z,4.50
2023-10-26T12:25:08.903Z,3.22
2023-10-26T12:28:20.725Z,4.80
2023-10-26T12:30:22.496Z,4.93
2023-10-26T12:32:49.018Z,4.65
2023-10-26T12:35:15.515Z,4.15
2023-10-26T12:37:42.057Z,4.38
2023-10-26T12:40:09.463Z,4.57
2023-10-26T12:42:37.008Z,4.22
2023-10-26T12:45:04.063Z,3.13
2023-10-26T12:47:30.629Z,4.25
2023-10-26T12:49:57.216Z,4.50
2023-10-26T12:52:23.758Z,2.85
2023-10-26T12:54:50.297Z,4.20
2023-10-26T12:57:17.221Z,3.58
2023-10-26T12:59:43.753Z,3.53
2023-10-26T13:02:12.485Z,4.15
2023-10-26T13:04:41.466Z,4.10
2023-10-26T13:07:08.191Z,4.30
2023-10-26T13:09:34.782Z,4.63
2023-10-26T13:12:01.321Z,3.47
2023-10-26T13:14:27.819Z,4.43
2023-10-26T13:16:57.827Z,4.78
2023-10-26T13:19:26.114Z,3.53
2023-10-26T13:21:55.171Z,4.22
2023-10-26T13:24:21.774Z,2.75
2023-10-26T13:26:48.330Z,3.15
2023-10-26T13:29:14.817Z,3.55
2023-10-26T13:31:41.427Z,2.70
2023-10-26T13:34:08.626Z,3.25
2023-10-26T13:36:35.481Z,4.80
2023-10-26T13:39:04.948Z,4.05
2023-10-26T13:41:34.075Z,3.90
2023-10-26T13:44:00.945Z,4.30
2023-10-26T13:46:29.887Z,3.13
2023-10-26T13:48:57.000Z,3.20
2023-10-26T13:51:23.847Z,4.18
2023-10-26T13:53:50.494Z,4.10
2023-10-26T13:56:17.074Z,2.85
2023-10-26T13:58:45.834Z,4.03
2023-10-26T14:01:13.564Z,4.40
2023-10-26T14:03:40.281Z,4.75
2023-10-26T14:06:08.816Z,2.33
2023-10-26T14:08:35.431Z,3.65
2023-10-26T14:11:01.959Z,3.30
2023-10-26T14:13:29.608Z,2.40
2023-10-26T14:18:22.818Z,3.05
2023-10-26T14:20:49.369Z,2.42
2023-10-26T14:23:15.845Z,3.42
2023-10-26T14:25:42.924Z,3.20
2023-10-26T14:28:09.456Z,3.50
2023-10-26T14:30:36.010Z,3.78
2023-10-26T14:33:04.992Z,2.88
2023-10-26T14:35:31.537Z,2.95
2023-10-26T14:38:00.357Z,2.70
2023-10-26T14:40:30.276Z,3.20
2023-10-26T14:42:57.341Z,3.53
2023-10-26T14:45:26.681Z,3.72
2023-10-26T14:47:53.714Z,2.70
2023-10-26T14:50:20.342Z,2.95
2023-10-26T14:52:46.963Z,3.25
2023-10-26T14:55:13.801Z,3.40
2023-10-26T14:57:40.670Z,2.90
2023-10-26T15:00:08.268Z,2.25
2023-10-26T15:02:35.170Z,2.67
2023-10-26T15:05:01.833Z,2.28
2023-10-26T15:07:28.356Z,2.70
2023-10-26T15:10:22.203Z,2.53
2023-10-26T15:12:41.892Z,2.47
2023-10-26T15:15:08.726Z,2.22
2023-10-26T15:17:37.593Z,2.35
2023-10-26T15:20:04.742Z,2.50
2023-10-26T15:22:31.295Z,2.90
2023-10-26T15:24:58.012Z,2.03
2023-10-26T15:27:24.595Z,2.30
2023-10-26T15:29:57.785Z,2.30
2023-10-26T15:32:24.311Z,2.00
2023-10-26T15:34:51.072Z,2.70
2023-10-26T15:37:19.764Z,2.20
2023-10-26T15:39:46.841Z,2.53
2023-10-26T15:42:16.339Z,2.28
2023-10-26T15:44:46.075Z,2.80
2023-10-26T15:47:14.836Z,2.45
2023-10-26T15:49:45.330Z,2.50
2023-10-26T15:52:12.068Z,2.85
2023-10-26T15:54:38.686Z,2.60
2023-10-26T15:57:07.737Z,2.30
2023-10-26T15:59:34.282Z,2.97
2023-10-26T16:02:00.920Z,2.25
2023-10-26T16:04:29.419Z,2.65
2023-10-26T16:06:55.982Z,2.90
2023-10-26T16:09:22.482Z,2.17
2023-10-26T16:11:49.006Z,3.08
2023-10-26T16:14:15.565Z,2.60
2023-10-26T16:16:42.181Z,3.00
2023-10-26T16:19:10.776Z,2.38
2023-10-26T16:21:37.429Z,2.60
2023-10-26T16:24:04.219Z,2.47
2023-10-26T16:26:30.768Z,2.78
2023-10-26T16:28:57.376Z,2.00
2023-10-26T16:31:23.901Z,2.83
2023-10-26T16:33:50.519Z,2.13
2023-10-26T16:36:19.720Z,3.65
2023-10-26T16:38:46.303Z,2.45
2023-10-26T16:41:12.875Z,3.17
2023-10-26T16:43:39.372Z,3.03
2023-10-26T16:46:06.016Z,2.83
2023-10-26T16:48:33.245Z,2.63
2023-10-26T16:51:01.703Z,2.47
2023-10-26T16:53:31.900Z,3.35
2023-10-26T16:56:00.358Z,4.80
2023-10-26T17:00:53.452Z,2.53
2023-10-26T17:03:20.470Z,3.30
2023-10-26T17:05:47.177Z,4.78
2023-10-26T17:08:13.806Z,3.03
2023-10-26T17:10:41.776Z,3.05
2023-10-26T17:13:11.239Z,4.45
2023-10-26T17:15:38.023Z,3.97
2023-10-26T17:18:04.759Z,6.00
2023-10-26T17:20:31.442Z,3.03
2023-10-26T17:22:58.004Z,2.42
2023-10-26T17:25:24.665Z,2.50
2023-10-26T17:27:52.028Z,4.05
2023-10-26T17:30:18.828Z,2.58
2023-10-26T17:32:47.943Z,4.38
2023-10-26T17:35:14.579Z,3.35
2023-10-26T17:37:41.214Z,3.28
2023-10-26T17:40:08.177Z,2.60
2023-10-26T17:42:34.813Z,3.25
2023-10-26T17:45:01.470Z,2.83
2023-10-26T17:47:29.020Z,3.33
2023-10-26T17:52:22.400Z,3.08
2023-10-26T17:54:49.082Z,3.13
2023-10-26T17:57:15.748Z,3.75
2023-10-26T17:59:42.484Z,3.08
2023-10-26T18:02:11.950Z,2.95
2023-10-26T18:04:39.358Z,3.55
2023-10-26T18:07:06.666Z,6.95
2023-10-26T18:09:36.317Z,4.22
2023-10-26T18:12:06.331Z,2.58
2023-10-26T18:14:32.941Z,2.58
2023-10-26T18:17:02.203Z,3.50
2023-10-26T18:19:28.998Z,2.80
2023-10-26T18:21:58.478Z,4.05
2023-10-26T18:24:25.097Z,4.35
2023-10-26T18:26:51.648Z,3.47
2023-10-26T18:29:18.276Z,2.85
2023-10-26T18:31:44.898Z,2.85
2023-10-26T18:34:17.315Z,2.97
2023-10-26T18:36:44.238Z,3.58
2023-10-26T18:39:11.551Z,2.65
2023-10-26T18:41:38.284Z,3.33
2023-10-26T18:44:05.182Z,2.70
2023-10-26T18:46:32.127Z,4.03
2023-10-26T18:48:59.116Z,3.63
2023-10-26T18:51:28.396Z,3.95
2023-10-26T18:53:56.875Z,4.78
2023-10-26T18:56:23.943Z,3.72
2023-10-26T18:58:51.364Z,3.25
2023-10-26T19:01:18.272Z,4.55
2023-10-26T19:03:58.045Z,4.03
2023-10-26T19:06:32.169Z,3.78
2023-10-26T19:08:59.791Z,4.30
2023-10-26T19:11:29.369Z,4.10
2023-10-26T19:13:56.606Z,4.18
2023-10-26T19:16:26.511Z,3.92
2023-10-26T19:18:53.500Z,4.45
2023-10-26T19:21:20.332Z,4.78
2023-10-26T19:23:46.986Z,4.88
2023-10-26T19:26:14.178Z,5.00
2023-10-26T19:28:40.948Z,4.82
2023-10-26T19:31:13.757Z,3.15
2023-10-26T19:33:43.386Z,3.78
2023-10-26T19:36:10.842Z,4.47
2023-10-26T19:38:37.885Z,4.18
2023-10-26T19:41:04.894Z,4.43
2023-10-26T19:43:31.620Z,4.45
2023-10-26T19:45:58.410Z,4.20
2023-10-26T19:48:25.525Z,4.50
2023-10-26T19:50:52.305Z,3.50
2023-10-26T19:53:19.010Z,4.80
2023-10-26T19:55:45.663Z,4.80
2023-10-26T19:58:12.501Z,4.32
2023-10-26T20:00:39.403Z,4.53
2023-10-26T20:03:06.227Z,5.05
2023-10-26T20:05:32.848Z,5.07
2023-10-26T20:07:59.603Z,3.83
2023-10-26T20:10:26.376Z,5.05
2023-10-26T20:12:53.137Z,3.58
2023-10-26T20:15:19.897Z,4.90
2023-10-26T20:17:46.774Z,4.80
2023-10-26T20:20:13.899Z,4.82
2023-10-26T20:22:41.061Z,4.30
2023-10-26T20:25:10.332Z,6.72
2023-10-26T20:27:39.066Z,3.83
2023-10-26T20:30:06.690Z,4.60
2023-10-26T20:35:03.124Z,3.90
2023-10-26T20:37:30.023Z,5.28
2023-10-26T20:39:57.013Z,3.35
2023-10-26T20:42:27.983Z,6.35
2023-10-26T20:44:57.052Z,8.07
2023-10-26T20:47:23.842Z,3.17
2023-10-26T20:49:53.607Z,4.40
2023-10-26T20:52:20.561Z,4.75
2023-10-26T20:54:47.612Z,4.82
2023-10-26T20:57:14.238Z,4.68
2023-10-26T20:59:40.893Z,3.40
2023-10-26T21:02:07.561Z,5.28
2023-10-26T21:04:34.205Z,5.45
2023-10-26T21:07:00.951Z,4.63
2023-10-26T21:09:28.052Z,4.18
2023-10-26T21:11:54.664Z,4.80
2023-10-26T21:14:21.250Z,5.57
2023-10-26T21:16:48.355Z,5.30
2023-10-26T21:19:15.402Z,5.68
2023-10-26T21:21:42.064Z,5.40
2023-10-26T21:24:09.276Z,5.20
2023-10-26T21:26:38.346Z,4.50
2023-10-26T21:29:05.218Z,5.05
2023-10-26T21:31:31.913Z,4.00
2023-10-26T21:33:58.543Z,5.00
2023-10-26T21:36:25.469Z,4.85
2023-10-26T21:38:52.055Z,3.13
2023-10-26T21:41:20.974Z,3.53
2023-10-26T21:43:47.579Z,4.47
2023-10-26T21:46:14.294Z,4.18
2023-10-26T21:48:42.401Z,4.03
2023-10-26T21:51:12.330Z,4.57
2023-10-26T21:53:39.456Z,4.43
2023-10-26T21:56:06.284Z,4.97
2023-10-26T21:58:32.862Z,4.38
2023-10-26T22:00:59.746Z,4.20
2023-10-26T22:03:26.347Z,3.95
2023-10-26T22:05:52.962Z,4.38
2023-10-26T22:08:19.959Z,4.18
2023-10-26T22:10:49.155Z,4.03
2023-10-26T22:13:15.679Z,3.08
2023-10-26T22:15:42.208Z,4.60
2023-10-26T22:18:11.523Z,3.70
2023-10-26T22:20:38.169Z,4.93
2023-10-26T22:23:05.359Z,5.40
2023-10-26T22:25:32.303Z,4.78
2023-10-26T22:27:58.889Z,3.60
2023-10-26T22:30:25.625Z,3.53
2023-10-26T22:32:52.245Z,3.53
2023-10-26T22:35:18.896Z,3.67
2023-10-26T22:37:45.572Z,3.88
2023-10-26T22:40:12.625Z,3.47
2023-10-26T22:42:39.257Z,3.72
2023-10-26T22:45:06.351Z,3.80
2023-10-26T22:47:32.919Z,2.80
2023-10-26T22:49:59.589Z,3.33
2023-10-26T22:52:26.145Z,2.88
2023-10-26T22:54:52.771Z,3.70
2023-10-26T22:57:19.296Z,3.47
2023-10-26T22:59:49.134Z,3.25
2023-10-26T23:02:15.681Z,4.03
2023-10-26T23:04:42.620Z,3.50
2023-10-26T23:07:09.345Z,2.42
2023-10-26T23:09:36.063Z,3.20
2023-10-26T23:12:02.987Z,3.53
2023-10-26T23:14:31.276Z,3.35
2023-10-26T23:16:58.313Z,3.42
2023-10-26T23:19:25.283Z,3.60
2023-10-26T23:21:51.992Z,3.22
2023-10-26T23:24:18.608Z,3.60
2023-10-26T23:26:45.143Z,3.95
2023-10-26T23:29:11.748Z,3.47
2023-10-26T23:31:38.259Z,3.40
2023-10-26T23:34:04.912Z,3.80
2023-10-26T23:36:31.492Z,3.83
2023-10-26T23:38:58.179Z,3.35
2023-10-26T23:41:24.708Z,3.47
2023-10-26T23:43:51.487Z,3.90
2023-10-26T23:46:19.705Z,4.05
2023-10-26T23:48:48.531Z,3.30
2023-10-26T23:51:15.264Z,2.72
2023-10-26T23:53:41.754Z,2.83
2023-10-26T23:56:10.859Z,3.47
2023-10-26T23:58:37.347Z,3.20
